Aeroporto :
LOGIN :

Iscrizione | Disclaimer

   EN    FR    IT 

 










Sommario :    VFR   VFR Marginale   IFR   IFR Intensivo   IFR Molto Intensivo
Visibilità : 
Base nubi : 
>= 8 km
>= 3000ft
5 / 8 km
1000 / 3000 ft
1500m / 5 km
500 / 1000 ft
800 / 1500m
200 / 500 ft
< 800m
< 200 ft
Simboli :   Temporali  Nebbia  Neve Forte  Precipitazioni Forti  Vento > 20 kt
SIGMETs :   Varie  Temporali  Ghiacco  Turbolenza  Onda orograficha  Ceneri Vulcaniche






- Altitudine del aeroporto : 242 ft
- Codice IATA : DUB


EIDW - Dublin

ULTIMO METAR :
  • 201800Z 25012KT 9999 FEW015 SCT030 04/M00 Q1012 NOSIG

METARs OBSOLETI :
  • 201730Z 25012KT 210V280 9999 FEW015 SCT030 04/M00 Q1011 NOSIG
  • 201700Z 26016G26KT 210V280 9999 FEW015 SCT030 05/01 Q1011 NOSIG
  • 201630Z 26016G26KT 210V280 9999 FEW012 05/01 Q1011 NOSIG
  • 201600Z 27017KT 9999 FEW015CB SCT030 05/M01 Q1010 NOSIG

TAF TAF EIDW
Valido dal 20 a 18 ore il 21 a 18 ore UTC


201700Z 2018/2118 27018G28KT 9999 FEW014 SCT030
TEMPO 2018/2019 -SHRA FEW018CB
BECMG 2020/2022 24017G28KT
BECMG 2103/2105 22022G35KT
TEMPO 2109/2118 23024G40KT
TEMPO 2109/2115 -RA BKN014
TEMPO 2115/2118 5000 -RADZ BKN010



MetMap, La meteo Aeronautica in un colpo d'occhio ! - Copyright ORBIFLY Dicembre 2007 - Disclaimer

ORBIFLY MET'MAP TEAM :

Programmazione e sviluppo : Alexandra Zaïnal
Concezione : Baudouin d'Aumeries
Aiuto per la programmazione : Marc-Olivier Méhu
Supporto tecnico e logistico : Manuel Goepfert
Aiuto per la traduzione : Arnaldo La Scala

Contatto : metmap@orbifly.com




FONTI E CREDITI :

   NOAA